sensor_id;sensor_type;location;lat;lon;timestamp;pressure;altitude;pressure_sealevel;temperature;humidity
23679;BME280;12016;51.668;6.874;2023-02-18T00:04:02;101851.56;;;10.27;87.89
23679;BME280;12016;51.668;6.874;2023-02-18T00:10:06;101952.59;;;11.11;87.70
23679;BME280;12016;51.668;6.874;2023-02-18T00:16:11;101948.31;;;11.05;88.29
23679;BME280;12016;51.668;6.874;2023-02-18T00:22:12;101771.03;;;9.96;87.88
23679;BME280;12016;51.668;6.874;2023-02-18T00:28:14;101893.66;;;10.76;88.44
23679;BME280;12016;51.668;6.874;2023-02-18T00:34:16;101915.41;;;10.84;88.61
23679;BME280;12016;51.668;6.874;2023-02-18T00:40:19;101611.88;;;8.92;88.34
23679;BME280;12016;51.668;6.874;2023-02-18T00:46:22;101903.41;;;10.95;89.01
23679;BME280;12016;51.668;6.874;2023-02-18T00:52:24;101330.00;;;7.36;88.50
23679;BME280;12016;51.668;6.874;2023-02-18T00:58:26;101902.91;;;10.93;89.51
23679;BME280;12016;51.668;6.874;2023-02-18T01:04:28;101903.66;;;10.99;89.13
23679;BME280;12016;51.668;6.874;2023-02-18T01:10:31;101887.25;;;10.95;89.22
23679;BME280;12016;51.668;6.874;2023-02-18T01:16:33;101886.69;;;10.98;88.75
23679;BME280;12016;51.668;6.874;2023-02-18T01:22:35;101832.09;;;10.64;89.00
23679;BME280;12016;51.668;6.874;2023-02-18T01:28:40;101315.56;;;7.32;88.32
23679;BME280;12016;51.668;6.874;2023-02-18T01:34:42;101876.84;;;11.07;88.75
23679;BME280;12016;51.668;6.874;2023-02-18T01:40:47;101843.84;;;10.73;88.89
23679;BME280;12016;51.668;6.874;2023-02-18T01:46:49;101332.00;;;7.60;88.01
23679;BME280;12016;51.668;6.874;2023-02-18T01:52:51;101736.34;;;10.24;87.98
23679;BME280;12016;51.668;6.874;2023-02-18T01:58:56;101866.06;;;11.07;88.14
23679;BME280;12016;51.668;6.874;2023-02-18T02:04:57;101766.78;;;10.48;88.16
23679;BME280;12016;51.668;6.874;2023-02-18T02:11:23;101767.00;;;10.52;87.99
23679;BME280;12016;51.668;6.874;2023-02-18T02:17:44;101461.88;;;8.71;87.71
23679;BME280;12016;51.668;6.874;2023-02-18T02:23:51;101834.28;;;11.04;88.43
23679;BME280;12016;51.668;6.874;2023-02-18T02:49:43;101762.53;;;10.66;89.32
23679;BME280;12016;51.668;6.874;2023-02-18T02:55:48;101315.31;;;7.68;89.13
23679;BME280;12016;51.668;6.874;2023-02-18T03:02:24;101765.72;;;10.92;89.94
23679;BME280;12016;51.668;6.874;2023-02-18T03:21:25;101690.97;;;10.36;90.40
23679;BME280;12016;51.668;6.874;2023-02-18T03:27:31;101675.50;;;10.47;89.95
23679;BME280;12016;51.668;6.874;2023-02-18T03:33:43;101558.66;;;9.76;89.85
23679;BME280;12016;51.668;6.874;2023-02-18T03:39:47;101720.13;;;10.77;90.41
23679;BME280;12016;51.668;6.874;2023-02-18T03:45:51;101718.13;;;10.82;89.93
23679;BME280;12016;51.668;6.874;2023-02-18T03:51:53;101210.84;;;7.58;89.72
23679;BME280;12016;51.668;6.874;2023-02-18T03:57:55;101415.25;;;8.90;89.61
23679;BME280;12016;51.668;6.874;2023-02-18T04:03:57;101713.69;;;10.72;90.80
23679;BME280;12016;51.668;6.874;2023-02-18T04:09:59;101704.66;;;10.82;89.59
23679;BME280;12016;51.668;6.874;2023-02-18T04:16:01;101672.09;;;10.79;90.04
23679;BME280;12016;51.668;6.874;2023-02-18T04:22:03;101426.34;;;9.08;89.60
23679;BME280;12016;51.668;6.874;2023-02-18T04:28:05;101439.63;;;9.47;90.04
23679;BME280;12016;51.668;6.874;2023-02-18T04:34:07;101085.31;;;7.12;90.82
23679;BME280;12016;51.668;6.874;2023-02-18T04:40:09;101637.22;;;10.68;91.50
23679;BME280;12016;51.668;6.874;2023-02-18T04:46:11;101397.69;;;9.22;90.87
23679;BME280;12016;51.668;6.874;2023-02-18T04:52:13;101391.22;;;9.23;91.01
23679;BME280;12016;51.668;6.874;2023-02-18T04:58:16;101329.59;;;8.84;90.94
23679;BME280;12016;51.668;6.874;2023-02-18T05:04:18;101416.91;;;9.34;90.76
23679;BME280;12016;51.668;6.874;2023-02-18T05:10:20;101487.19;;;9.70;90.93
23679;BME280;12016;51.668;6.874;2023-02-18T05:16:22;101647.81;;;10.41;91.11
23679;BME280;12016;51.668;6.874;2023-02-18T05:22:24;101007.19;;;6.71;91.01
23679;BME280;12016;51.668;6.874;2023-02-18T05:28:26;101513.22;;;10.17;91.62
23679;BME280;12016;51.668;6.874;2023-02-18T05:34:27;101436.69;;;9.86;91.50
23679;BME280;12016;51.668;6.874;2023-02-18T05:40:29;101564.84;;;10.62;91.29
23679;BME280;12016;51.668;6.874;2023-02-18T05:46:31;101363.16;;;9.34;91.69
23679;BME280;12016;51.668;6.874;2023-02-18T05:52:33;101524.97;;;10.45;91.26
23679;BME280;12016;51.668;6.874;2023-02-18T05:58:35;101519.16;;;10.38;91.24
23679;BME280;12016;51.668;6.874;2023-02-18T06:04:37;101541.19;;;10.59;90.86
23679;BME280;12016;51.668;6.874;2023-02-18T06:10:39;101287.25;;;9.00;91.16
23679;BME280;12016;51.668;6.874;2023-02-18T06:16:41;100989.41;;;7.14;91.02
23679;BME280;12016;51.668;6.874;2023-02-18T06:22:43;101260.09;;;9.01;91.32
23679;BME280;12016;51.668;6.874;2023-02-18T06:28:45;101529.75;;;10.29;91.56
23679;BME280;12016;51.668;6.874;2023-02-18T06:34:47;101533.09;;;10.59;92.00
23679;BME280;12016;51.668;6.874;2023-02-18T06:40:49;101091.66;;;7.50;91.20
23679;BME280;12016;51.668;6.874;2023-02-18T06:46:50;101258.69;;;8.85;91.58
23679;BME280;12016;51.668;6.874;2023-02-18T06:52:52;101340.75;;;9.39;91.57
23679;BME280;12016;51.668;6.874;2023-02-18T06:58:54;101451.88;;;9.95;91.83
23679;BME280;12016;51.668;6.874;2023-02-18T07:04:56;101315.66;;;9.06;91.94
23679;BME280;12016;51.668;6.874;2023-02-18T07:10:57;101001.38;;;7.22;91.23
23679;BME280;12016;51.668;6.874;2023-02-18T07:16:59;101482.53;;;10.18;91.30
23679;BME280;12016;51.668;6.874;2023-02-18T07:23:01;101203.41;;;8.36;91.94
23679;BME280;12016;51.668;6.874;2023-02-18T07:29:03;101472.84;;;9.98;91.71
23679;BME280;12016;51.668;6.874;2023-02-18T07:35:05;101148.63;;;7.89;91.41
23679;BME280;12016;51.668;6.874;2023-02-18T07:41:17;101484.84;;;10.06;91.04
23679;BME280;12016;51.668;6.874;2023-02-18T07:47:19;101305.59;;;8.92;91.55
23679;BME280;12016;51.668;6.874;2023-02-18T07:53:21;101309.97;;;8.65;91.49
23679;BME280;12016;51.668;6.874;2023-02-18T07:59:23;101056.03;;;7.21;90.27
23679;BME280;12016;51.668;6.874;2023-02-18T08:05:25;101555.44;;;10.22;90.93
23679;BME280;12016;51.668;6.874;2023-02-18T08:11:27;101562.09;;;10.48;91.01
23679;BME280;12016;51.668;6.874;2023-02-18T08:17:29;101430.34;;;9.77;91.17
23679;BME280;12016;51.668;6.874;2023-02-18T08:23:31;101270.34;;;8.51;90.27
23679;BME280;12016;51.668;6.874;2023-02-18T08:29:33;101394.69;;;9.23;90.64
23679;BME280;12016;51.668;6.874;2023-02-18T08:35:35;101495.28;;;9.89;90.72
23679;BME280;12016;51.668;6.874;2023-02-18T08:41:39;101604.28;;;10.10;91.28
23679;BME280;12016;51.668;6.874;2023-02-18T08:47:40;101347.53;;;8.41;89.67
23679;BME280;12016;51.668;6.874;2023-02-18T08:53:42;101582.13;;;9.94;90.79
23679;BME280;12016;51.668;6.874;2023-02-18T08:59:45;101272.28;;;7.88;90.33
23679;BME280;12016;51.668;6.874;2023-02-18T09:05:46;101558.25;;;9.88;91.38
23679;BME280;12016;51.668;6.874;2023-02-18T09:11:49;100878.75;;;5.49;89.72
23679;BME280;12016;51.668;6.874;2023-02-18T09:17:51;101592.22;;;9.84;90.33
23679;BME280;12016;51.668;6.874;2023-02-18T09:23:53;100998.38;;;6.26;89.15
23679;BME280;12016;51.668;6.874;2023-02-18T09:29:54;101586.16;;;9.97;88.77
23679;BME280;12016;51.668;6.874;2023-02-18T09:35:56;101356.34;;;8.70;89.48
23679;BME280;12016;51.668;6.874;2023-02-18T09:42:00;101458.03;;;9.35;89.42
23679;BME280;12016;51.668;6.874;2023-02-18T09:48:03;100886.34;;;5.26;88.84
23679;BME280;12016;51.668;6.874;2023-02-18T09:54:09;101556.56;;;9.97;89.26
23679;BME280;12016;51.668;6.874;2023-02-18T10:00:28;101567.22;;;10.02;88.41
23679;BME280;12016;51.668;6.874;2023-02-18T10:06:33;101583.34;;;9.59;88.63
23679;BME280;12016;51.668;6.874;2023-02-18T10:12:35;101587.94;;;9.83;89.54
23679;BME280;12016;51.668;6.874;2023-02-18T10:18:42;101593.31;;;9.83;89.52
23679;BME280;12016;51.668;6.874;2023-02-18T10:24:59;101502.88;;;9.39;90.05
23679;BME280;12016;51.668;6.874;2023-02-18T10:31:07;101183.81;;;7.20;89.75
23679;BME280;12016;51.668;6.874;2023-02-18T10:37:37;101600.34;;;9.79;90.27
23679;BME280;12016;51.668;6.874;2023-02-18T10:50:26;101594.53;;;9.43;90.38
23679;BME280;12016;51.668;6.874;2023-02-18T10:56:38;101617.69;;;9.67;90.79
23679;BME280;12016;51.668;6.874;2023-02-18T11:02:41;101081.13;;;6.02;90.90
23679;BME280;12016;51.668;6.874;2023-02-18T11:08:45;101628.91;;;9.75;91.20
23679;BME280;12016;51.668;6.874;2023-02-18T11:14:50;101627.25;;;9.79;90.52
23679;BME280;12016;51.668;6.874;2023-02-18T11:21:19;101043.66;;;6.13;90.71
23679;BME280;12016;51.668;6.874;2023-02-18T11:27:47;101612.72;;;9.80;90.88
23679;BME280;12016;51.668;6.874;2023-02-18T11:33:56;101622.63;;;9.84;91.21
23679;BME280;12016;51.668;6.874;2023-02-18T11:39:59;101490.72;;;8.94;91.86
23679;BME280;12016;51.668;6.874;2023-02-18T11:46:15;101624.44;;;9.89;91.23
23679;BME280;12016;51.668;6.874;2023-02-18T11:52:41;101548.53;;;9.44;91.53
23679;BME280;12016;51.668;6.874;2023-02-18T11:58:47;101608.28;;;9.89;91.24
23679;BME280;12016;51.668;6.874;2023-02-18T12:04:52;101612.16;;;9.83;91.07
23679;BME280;12016;51.668;6.874;2023-02-18T12:11:02;101464.00;;;8.74;91.12
23679;BME280;12016;51.668;6.874;2023-02-18T12:23:51;101643.94;;;9.76;91.45
23679;BME280;12016;51.668;6.874;2023-02-18T12:30:20;101565.13;;;9.51;91.50
23679;BME280;12016;51.668;6.874;2023-02-18T12:43:01;101352.97;;;8.31;91.35
23679;BME280;12016;51.668;6.874;2023-02-18T13:01:32;101608.66;;;10.06;91.77
23679;BME280;12016;51.668;6.874;2023-02-18T13:13:44;101127.56;;;7.20;91.54
23679;BME280;12016;51.668;6.874;2023-02-18T13:19:54;101466.78;;;9.21;91.62
23679;BME280;12016;51.668;6.874;2023-02-18T13:26:00;101604.16;;;10.25;92.18
23679;BME280;12016;51.668;6.874;2023-02-18T13:51:04;101511.56;;;9.79;92.05
23679;BME280;12016;51.668;6.874;2023-02-18T13:57:16;101569.91;;;10.26;91.03
23679;BME280;12016;51.668;6.874;2023-02-18T14:09:41;101585.53;;;10.48;92.41
23679;BME280;12016;51.668;6.874;2023-02-18T14:15:53;101601.25;;;10.59;91.76
23679;BME280;12016;51.668;6.874;2023-02-18T14:22:31;101596.81;;;10.50;91.34
23679;BME280;12016;51.668;6.874;2023-02-18T14:34:49;101585.38;;;10.58;91.99
23679;BME280;12016;51.668;6.874;2023-02-18T14:47:19;101598.28;;;10.61;91.39
23679;BME280;12016;51.668;6.874;2023-02-18T14:53:25;101287.56;;;8.74;91.22
23679;BME280;12016;51.668;6.874;2023-02-18T14:59:33;101598.19;;;10.66;91.59
23679;BME280;12016;51.668;6.874;2023-02-18T15:05:37;101571.47;;;10.51;91.44
23679;BME280;12016;51.668;6.874;2023-02-18T15:17:47;101376.00;;;9.13;91.53
23679;BME280;12016;51.668;6.874;2023-02-18T15:23:50;101477.25;;;9.89;91.60
23679;BME280;12016;51.668;6.874;2023-02-18T15:30:27;101367.38;;;9.16;91.66
23679;BME280;12016;51.668;6.874;2023-02-18T15:36:31;101617.09;;;10.80;91.73
23679;BME280;12016;51.668;6.874;2023-02-18T15:42:35;101618.13;;;10.84;91.65
23679;BME280;12016;51.668;6.874;2023-02-18T15:48:45;101612.41;;;10.90;91.76
23679;BME280;12016;51.668;6.874;2023-02-18T15:54:48;101501.03;;;10.25;91.82
23679;BME280;12016;51.668;6.874;2023-02-18T16:00:53;101621.47;;;10.94;91.62
23679;BME280;12016;51.668;6.874;2023-02-18T16:06:55;101091.38;;;7.51;91.08
23679;BME280;12016;51.668;6.874;2023-02-18T16:12:57;101386.97;;;9.41;91.09
23679;BME280;12016;51.668;6.874;2023-02-18T16:19:02;101278.25;;;8.09;91.31
23679;BME280;12016;51.668;6.874;2023-02-18T16:25:34;101624.75;;;10.91;91.88
23679;BME280;12016;51.668;6.874;2023-02-18T16:31:37;101282.53;;;8.68;91.52
23679;BME280;12016;51.668;6.874;2023-02-18T16:37:40;101425.81;;;9.53;91.34
23679;BME280;12016;51.668;6.874;2023-02-18T16:43:43;101622.16;;;10.86;91.98
23679;BME280;12016;51.668;6.874;2023-02-18T16:49:47;101675.16;;;10.91;91.17
23679;BME280;12016;51.668;6.874;2023-02-18T16:55:50;101627.88;;;10.80;91.32
23679;BME280;12016;51.668;6.874;2023-02-18T17:01:52;101417.72;;;9.53;91.26
23679;BME280;12016;51.668;6.874;2023-02-18T17:07:58;101631.84;;;10.87;91.27
23679;BME280;12016;51.668;6.874;2023-02-18T17:14:05;101631.53;;;10.70;90.70
23679;BME280;12016;51.668;6.874;2023-02-18T17:20:07;101635.31;;;10.69;89.94
23679;BME280;12016;51.668;6.874;2023-02-18T17:26:25;101643.25;;;10.60;90.69
23679;BME280;12016;51.668;6.874;2023-02-18T17:32:27;101399.41;;;9.13;90.86
23679;BME280;12016;51.668;6.874;2023-02-18T17:38:31;101521.97;;;9.85;90.79
23679;BME280;12016;51.668;6.874;2023-02-18T17:44:38;101648.41;;;10.57;90.97
23679;BME280;12016;51.668;6.874;2023-02-18T17:50:43;101561.84;;;10.02;90.65
23679;BME280;12016;51.668;6.874;2023-02-18T17:56:45;101249.56;;;8.09;90.91
23679;BME280;12016;51.668;6.874;2023-02-18T18:02:52;101649.09;;;10.67;91.00
23679;BME280;12016;51.668;6.874;2023-02-18T18:08:54;101391.88;;;8.91;90.42
23679;BME280;12016;51.668;6.874;2023-02-18T18:14:56;101540.91;;;9.99;90.72
23679;BME280;12016;51.668;6.874;2023-02-18T18:20:59;101465.56;;;9.56;90.64
23679;BME280;12016;51.668;6.874;2023-02-18T18:27:01;101399.88;;;9.20;90.17
23679;BME280;12016;51.668;6.874;2023-02-18T18:33:12;101640.00;;;10.63;90.68
23679;BME280;12016;51.668;6.874;2023-02-18T18:39:14;101646.19;;;10.64;90.31
23679;BME280;12016;51.668;6.874;2023-02-18T18:45:20;101238.25;;;8.12;90.26
23679;BME280;12016;51.668;6.874;2023-02-18T18:51:27;101642.25;;;10.75;90.23
23679;BME280;12016;51.668;6.874;2023-02-18T18:57:30;101441.13;;;9.53;90.45
23679;BME280;12016;51.668;6.874;2023-02-18T19:03:34;101340.00;;;8.90;90.12
23679;BME280;12016;51.668;6.874;2023-02-18T19:09:38;101547.81;;;10.29;90.87
23679;BME280;12016;51.668;6.874;2023-02-18T19:15:41;101636.59;;;10.77;91.13
23679;BME280;12016;51.668;6.874;2023-02-18T19:21:43;101621.78;;;10.74;91.09
23679;BME280;12016;51.668;6.874;2023-02-18T19:27:48;101631.47;;;10.75;91.06
23679;BME280;12016;51.668;6.874;2023-02-18T19:33:50;101640.84;;;10.78;90.58
23679;BME280;12016;51.668;6.874;2023-02-18T19:39:52;101364.97;;;9.15;91.05
23679;BME280;12016;51.668;6.874;2023-02-18T19:45:54;101495.59;;;10.06;90.44
23679;BME280;12016;51.668;6.874;2023-02-18T19:51:56;101350.75;;;9.14;90.72
23679;BME280;12016;51.668;6.874;2023-02-18T19:58:04;101593.81;;;10.70;91.36
23679;BME280;12016;51.668;6.874;2023-02-18T20:04:07;101684.06;;;10.72;91.66
23679;BME280;12016;51.668;6.874;2023-02-18T20:10:13;101584.88;;;10.74;91.36
23679;BME280;12016;51.668;6.874;2023-02-18T20:16:16;101445.75;;;9.90;91.42
23679;BME280;12016;51.668;6.874;2023-02-18T20:22:17;101483.47;;;10.27;91.42
23679;BME280;12016;51.668;6.874;2023-02-18T20:28:20;101307.66;;;9.01;91.18
23679;BME280;12016;51.668;6.874;2023-02-18T20:34:22;101634.69;;;10.77;91.73
23679;BME280;12016;51.668;6.874;2023-02-18T20:40:23;101510.63;;;10.31;92.00
23679;BME280;12016;51.668;6.874;2023-02-18T20:46:25;101041.69;;;7.35;91.81
23679;BME280;12016;51.668;6.874;2023-02-18T20:52:27;101273.19;;;8.84;91.14
23679;BME280;12016;51.668;6.874;2023-02-18T20:58:30;101553.56;;;10.60;91.93
23679;BME280;12016;51.668;6.874;2023-02-18T21:04:32;101519.28;;;10.28;91.47
23679;BME280;12016;51.668;6.874;2023-02-18T21:10:38;101351.13;;;9.26;91.35
23679;BME280;12016;51.668;6.874;2023-02-18T21:16:40;101536.81;;;10.63;91.68
23679;BME280;12016;51.668;6.874;2023-02-18T21:22:42;101540.16;;;10.55;92.13
23679;BME280;12016;51.668;6.874;2023-02-18T21:28:48;101475.78;;;10.21;91.31
23679;BME280;12016;51.668;6.874;2023-02-18T21:34:51;101001.50;;;7.06;91.28
23679;BME280;12016;51.668;6.874;2023-02-18T21:40:52;101540.38;;;10.58;91.71
23679;BME280;12016;51.668;6.874;2023-02-18T21:46:55;101309.13;;;9.12;90.89
23679;BME280;12016;51.668;6.874;2023-02-18T21:52:56;101546.13;;;10.52;91.74
23679;BME280;12016;51.668;6.874;2023-02-18T21:58:59;101235.09;;;8.58;91.18
23679;BME280;12016;51.668;6.874;2023-02-18T22:05:01;101297.19;;;8.99;91.64
23679;BME280;12016;51.668;6.874;2023-02-18T22:11:04;100858.81;;;6.19;91.21
23679;BME280;12016;51.668;6.874;2023-02-18T22:17:06;101546.13;;;10.52;91.72
23679;BME280;12016;51.668;6.874;2023-02-18T22:23:08;101267.72;;;9.13;91.24
23679;BME280;12016;51.668;6.874;2023-02-18T22:29:11;101472.97;;;10.45;91.75
23679;BME280;12016;51.668;6.874;2023-02-18T22:35:13;101311.78;;;9.54;91.16
23679;BME280;12016;51.668;6.874;2023-02-18T22:41:19;101452.97;;;10.51;91.52
23679;BME280;12016;51.668;6.874;2023-02-18T22:47:21;101254.38;;;9.08;91.76
23679;BME280;12016;51.668;6.874;2023-02-18T22:53:23;101419.75;;;10.23;92.01
23679;BME280;12016;51.668;6.874;2023-02-18T22:59:25;101409.69;;;10.10;91.69
23679;BME280;12016;51.668;6.874;2023-02-18T23:05:26;101284.34;;;9.15;91.69
23679;BME280;12016;51.668;6.874;2023-02-18T23:11:28;101413.13;;;9.96;92.63
23679;BME280;12016;51.668;6.874;2023-02-18T23:17:30;101150.19;;;8.43;91.29
23679;BME280;12016;51.668;6.874;2023-02-18T23:23:35;101181.41;;;8.58;91.90
23679;BME280;12016;51.668;6.874;2023-02-18T23:29:37;101514.81;;;10.56;92.06
23679;BME280;12016;51.668;6.874;2023-02-18T23:35:39;101532.06;;;10.55;91.42
23679;BME280;12016;51.668;6.874;2023-02-18T23:41:41;100792.47;;;6.21;90.94
23679;BME280;12016;51.668;6.874;2023-02-18T23:47:42;101465.94;;;10.49;92.07
23679;BME280;12016;51.668;6.874;2023-02-18T23:53:44;101308.50;;;9.57;92.00
23679;BME280;12016;51.668;6.874;2023-02-18T23:59:46;101474.72;;;10.54;92.09
